createdAt,value
2023-03-31T00:01:00.512Z,8.6
2023-03-31T00:02:07.382Z,8.8
2023-03-31T00:03:14.244Z,8.7
2023-03-31T00:04:20.977Z,8.8
2023-03-31T00:05:27.708Z,8.7
2023-03-31T00:06:34.775Z,8.8
2023-03-31T00:07:41.229Z,8.5
2023-03-31T00:08:48.017Z,8.5
2023-03-31T00:10:00.824Z,8.5
2023-03-31T00:11:01.856Z,8.6
2023-03-31T00:12:08.605Z,8.5
2023-03-31T00:13:18.302Z,8.6
2023-03-31T00:14:25.090Z,8.6
2023-03-31T00:15:31.903Z,8.6
2023-03-31T00:16:38.740Z,8.5
2023-03-31T00:17:45.603Z,8.5
2023-03-31T00:18:52.389Z,8.4
2023-03-31T00:19:59.196Z,8.3
2023-03-31T00:21:06.016Z,8.3
2023-03-31T00:22:15.520Z,8.4
2023-03-31T00:23:22.256Z,8.5
2023-03-31T00:24:29.088Z,8.4
2023-03-31T00:25:35.997Z,8.4
2023-03-31T00:26:42.767Z,8.4
2023-03-31T00:27:49.741Z,8.3
2023-03-31T00:28:56.533Z,8.3
2023-03-31T00:30:03.378Z,8.1
2023-03-31T00:31:10.600Z,8.3
2023-03-31T00:32:17.380Z,8.3
2023-03-31T00:33:24.143Z,8.3
2023-03-31T00:34:30.912Z,8.3
2023-03-31T00:35:37.689Z,8.3
2023-03-31T00:36:44.454Z,8.3
2023-03-31T00:37:51.200Z,8.2
2023-03-31T00:38:57.956Z,8.2
2023-03-31T00:40:04.690Z,8.2
2023-03-31T00:41:14.261Z,8.1
2023-03-31T00:42:21.073Z,8.2
2023-03-31T00:43:27.883Z,8.2
2023-03-31T00:44:37.725Z,8.1
2023-03-31T00:45:52.117Z,8.2
2023-03-31T00:46:58.820Z,8
2023-03-31T00:48:10.716Z,8.1
2023-03-31T00:49:17.448Z,8
2023-03-31T00:50:26.882Z,8
2023-03-31T00:51:33.829Z,7.9
2023-03-31T00:52:40.599Z,8
2023-03-31T00:53:47.405Z,8.1
2023-03-31T00:54:54.173Z,8
2023-03-31T00:56:03.996Z,8
2023-03-31T00:57:10.644Z,8
2023-03-31T00:58:17.361Z,8.1
2023-03-31T00:59:24.163Z,8.1
2023-03-31T01:00:31.033Z,8.1
2023-03-31T01:01:37.836Z,7.9
2023-03-31T01:02:44.635Z,8.2
2023-03-31T01:03:51.554Z,8
2023-03-31T01:04:58.445Z,8.1
2023-03-31T01:06:05.383Z,8.2
2023-03-31T01:07:12.077Z,8
2023-03-31T01:08:21.537Z,8
2023-03-31T01:09:28.326Z,8.1
2023-03-31T01:10:35.077Z,8.1
2023-03-31T01:11:45.018Z,8.1
2023-03-31T01:12:51.932Z,8.1
2023-03-31T01:13:58.662Z,8
2023-03-31T01:15:05.429Z,8
2023-03-31T01:16:12.344Z,8
2023-03-31T01:17:19.490Z,7.9
2023-03-31T01:18:26.055Z,7.9
2023-03-31T01:19:32.694Z,8
2023-03-31T01:20:42.277Z,8.1
2023-03-31T01:21:56.998Z,8
2023-03-31T01:23:11.619Z,7.9
2023-03-31T01:24:26.377Z,8
2023-03-31T01:25:43.266Z,8
2023-03-31T01:26:55.112Z,7.9
2023-03-31T01:28:04.409Z,8
2023-03-31T01:29:16.258Z,8.1
2023-03-31T01:30:23.008Z,8
2023-03-31T01:31:32.407Z,7.9
2023-03-31T01:32:44.701Z,7.9
2023-03-31T01:33:59.409Z,7.8
2023-03-31T01:35:16.262Z,8
2023-03-31T01:36:28.063Z,8
2023-03-31T01:37:39.968Z,8
2023-03-31T01:38:51.841Z,8
2023-03-31T01:40:08.730Z,7.9
2023-03-31T01:41:23.180Z,8
2023-03-31T01:42:35.054Z,8
2023-03-31T01:43:48.037Z,8
2023-03-31T01:44:57.606Z,8
2023-03-31T01:46:04.623Z,8
2023-03-31T01:47:19.029Z,7.8
2023-03-31T01:48:28.815Z,7.9
2023-03-31T01:49:35.628Z,7.9
2023-03-31T01:50:52.548Z,7.9
2023-03-31T01:52:07.527Z,8
2023-03-31T01:53:22.242Z,8.1
2023-03-31T01:54:36.828Z,8
2023-03-31T01:55:48.718Z,7.9
2023-03-31T01:56:58.193Z,8
2023-03-31T01:58:04.935Z,7.9
2023-03-31T01:59:16.768Z,7.9
2023-03-31T02:00:23.656Z,7.9
2023-03-31T02:01:31.324Z,7.8
2023-03-31T02:02:47.482Z,8
2023-03-31T02:03:56.951Z,8
2023-03-31T02:05:03.600Z,7.9
2023-03-31T02:06:15.535Z,7.9
2023-03-31T02:07:22.365Z,7.9
2023-03-31T02:08:34.110Z,7.9
2023-03-31T02:09:43.765Z,7.8
2023-03-31T02:10:53.204Z,7.9
2023-03-31T02:11:59.998Z,8
2023-03-31T02:13:06.906Z,7.9
2023-03-31T02:14:13.679Z,7.9
2023-03-31T02:15:23.060Z,8
2023-03-31T02:16:29.785Z,7.9
2023-03-31T02:17:36.602Z,7.9
2023-03-31T02:18:43.327Z,7.9
2023-03-31T02:19:50.152Z,7.9
2023-03-31T02:20:56.875Z,7.8
2023-03-31T02:22:03.641Z,7.8
2023-03-31T02:23:10.350Z,7.7
2023-03-31T02:24:17.182Z,7.7
2023-03-31T02:25:24.065Z,7.7
2023-03-31T02:26:33.738Z,7.7
2023-03-31T02:27:40.493Z,7.7
2023-03-31T02:28:47.326Z,7.8
2023-03-31T02:29:54.060Z,7.7
2023-03-31T02:31:00.870Z,7.7
2023-03-31T02:32:12.780Z,7.8
2023-03-31T02:33:27.309Z,7.8
2023-03-31T02:34:34.095Z,7.7
2023-03-31T02:35:40.989Z,7.7
2023-03-31T02:36:47.709Z,7.8
2023-03-31T02:37:54.644Z,7.7
2023-03-31T02:39:01.369Z,7.7
2023-03-31T02:40:08.121Z,7.7
2023-03-31T02:41:14.859Z,7.6
2023-03-31T02:42:21.738Z,7.6
2023-03-31T02:43:28.610Z,7.6
2023-03-31T02:44:35.379Z,7.5
2023-03-31T02:45:42.156Z,7.6
2023-03-31T02:46:48.922Z,7.6
2023-03-31T02:47:55.742Z,7.6
2023-03-31T02:49:02.580Z,7.6
2023-03-31T02:50:09.296Z,7.6
2023-03-31T02:51:16.063Z,7.6
2023-03-31T02:52:27.875Z,7.5
2023-03-31T02:53:42.300Z,7.5
2023-03-31T02:54:54.128Z,7.5
2023-03-31T02:56:06.108Z,7.5
2023-03-31T02:57:20.465Z,7.6
2023-03-31T02:58:32.388Z,7.7
2023-03-31T02:59:44.257Z,7.8
2023-03-31T03:01:01.272Z,7.7
2023-03-31T03:02:18.227Z,7.8
2023-03-31T03:03:35.096Z,7.6
2023-03-31T03:04:44.716Z,7.7
2023-03-31T03:05:59.624Z,7.7
2023-03-31T03:07:13.964Z,7.7
2023-03-31T03:08:28.933Z,7.7
2023-03-31T03:09:40.745Z,7.8
2023-03-31T03:10:50.173Z,7.8
2023-03-31T03:12:04.941Z,7.7
2023-03-31T03:13:14.692Z,7.7
2023-03-31T03:14:31.756Z,7.6
2023-03-31T03:15:43.695Z,7.7
2023-03-31T03:16:50.478Z,7.6
2023-03-31T03:17:57.360Z,7.6
2023-03-31T03:19:04.101Z,7.5
2023-03-31T03:20:10.883Z,7.6
2023-03-31T03:21:17.678Z,7.5
2023-03-31T03:22:24.530Z,7.5
2023-03-31T03:23:31.330Z,7.6
2023-03-31T03:24:38.026Z,7.7
2023-03-31T03:25:44.784Z,7.7
2023-03-31T03:26:51.549Z,7.7
2023-03-31T03:27:58.413Z,7.6
2023-03-31T03:29:05.122Z,7.7
2023-03-31T03:30:11.902Z,7.7
2023-03-31T03:31:18.716Z,7.6
2023-03-31T03:32:25.388Z,7.5
2023-03-31T03:33:32.290Z,7.4
2023-03-31T03:34:39.022Z,7.5
2023-03-31T03:35:45.835Z,7.5
2023-03-31T03:36:52.536Z,7.6
2023-03-31T03:37:59.302Z,7.5
2023-03-31T03:39:06.049Z,7.5
2023-03-31T03:40:12.796Z,7.4
2023-03-31T03:41:19.534Z,7.6
2023-03-31T03:42:26.304Z,7.5
2023-03-31T03:43:33.038Z,7.5
2023-03-31T03:44:39.854Z,7.3
2023-03-31T03:45:46.706Z,7.3
2023-03-31T03:46:53.528Z,7.3
2023-03-31T03:48:00.348Z,7.4
2023-03-31T03:49:07.106Z,7.4
2023-03-31T03:50:15.897Z,7.5
2023-03-31T03:51:20.870Z,7.5
2023-03-31T03:52:27.632Z,7.4
2023-03-31T03:53:34.401Z,7.3
2023-03-31T03:54:41.211Z,7.4
2023-03-31T03:55:48.072Z,7.3
2023-03-31T03:56:54.908Z,7.4
2023-03-31T03:58:01.660Z,7.3
2023-03-31T03:59:08.380Z,7.3
2023-03-31T04:00:15.230Z,7.3
2023-03-31T04:01:22.300Z,7.3
2023-03-31T04:02:29.260Z,7.4
2023-03-31T04:03:35.854Z,7.3
2023-03-31T04:04:42.656Z,7.2
2023-03-31T04:05:49.321Z,7.1
2023-03-31T04:06:56.081Z,7.1
2023-03-31T04:08:02.937Z,7
2023-03-31T04:09:09.673Z,7.2
2023-03-31T04:10:16.436Z,7.1
2023-03-31T04:11:23.148Z,7.2
2023-03-31T04:12:29.843Z,7.2
2023-03-31T04:13:39.387Z,7.2
2023-03-31T04:14:46.155Z,7.3
2023-03-31T04:15:52.946Z,7.3
2023-03-31T04:16:59.645Z,7.1
2023-03-31T04:18:06.405Z,7.2
2023-03-31T04:19:15.902Z,7.2
2023-03-31T04:20:22.627Z,7.1
2023-03-31T04:21:32.460Z,7.1
2023-03-31T04:22:39.426Z,7.3
2023-03-31T04:23:46.178Z,7.1
2023-03-31T04:24:56.189Z,7.2
2023-03-31T04:26:02.986Z,7.1
2023-03-31T04:27:09.694Z,7.1
2023-03-31T04:28:16.437Z,7.1
2023-03-31T04:29:23.259Z,7.1
2023-03-31T04:30:30.013Z,7
2023-03-31T04:31:36.756Z,7
2023-03-31T04:32:43.580Z,6.9
2023-03-31T04:33:50.428Z,7.1
2023-03-31T04:34:57.162Z,7.1
2023-03-31T04:36:04.563Z,6.9
2023-03-31T04:37:16.000Z,7
2023-03-31T04:38:22.842Z,7
2023-03-31T04:39:32.707Z,7.1
2023-03-31T04:40:39.553Z,7
2023-03-31T04:41:46.286Z,7.1
2023-03-31T04:42:53.027Z,7
2023-03-31T04:43:59.824Z,7
2023-03-31T04:45:06.700Z,7
2023-03-31T04:46:13.734Z,7
2023-03-31T04:47:20.516Z,7
2023-03-31T04:48:27.263Z,7.1
2023-03-31T04:49:34.077Z,7.1
2023-03-31T04:50:40.791Z,7.1
2023-03-31T04:51:47.515Z,7
2023-03-31T04:52:54.445Z,7.1
2023-03-31T04:54:01.202Z,7
2023-03-31T04:55:07.958Z,7.1
2023-03-31T04:56:14.808Z,7
2023-03-31T04:57:21.805Z,7.1
2023-03-31T04:58:28.427Z,7.1
2023-03-31T04:59:35.215Z,7
2023-03-31T05:00:42.097Z,7.1
2023-03-31T05:01:49.149Z,7.1
2023-03-31T05:02:56.191Z,7.2
2023-03-31T05:04:02.853Z,7.2
2023-03-31T05:05:09.704Z,7.2
2023-03-31T05:06:16.507Z,7.1
2023-03-31T05:07:23.289Z,7.1
2023-03-31T05:08:30.214Z,7.1
2023-03-31T05:09:36.936Z,7.1
2023-03-31T05:10:43.669Z,7.1
2023-03-31T05:11:50.400Z,7.1
2023-03-31T05:12:57.122Z,7.1
2023-03-31T05:14:03.987Z,7.2
2023-03-31T05:15:10.698Z,7.2
2023-03-31T05:16:17.520Z,7.3
2023-03-31T05:17:24.196Z,7.3
2023-03-31T05:18:30.937Z,7.2
2023-03-31T05:19:37.774Z,7.2
2023-03-31T05:20:44.599Z,7.3
2023-03-31T05:21:51.309Z,7.2
2023-03-31T05:22:58.103Z,7.3
2023-03-31T05:24:04.889Z,7.4
2023-03-31T05:25:11.935Z,7.4
2023-03-31T05:26:18.788Z,7.4
2023-03-31T05:27:25.482Z,7.4
2023-03-31T05:28:32.547Z,7.4
2023-03-31T05:29:39.148Z,7.5
2023-03-31T05:30:46.036Z,7.5
2023-03-31T05:31:52.799Z,7.5
2023-03-31T05:32:59.564Z,7.5
2023-03-31T05:34:06.292Z,7.5
2023-03-31T05:35:13.063Z,7.5
2023-03-31T05:36:20.128Z,7.6
2023-03-31T05:37:26.793Z,7.6
2023-03-31T05:38:33.702Z,7.6
2023-03-31T05:39:40.385Z,7.6
2023-03-31T05:40:47.210Z,7.6
2023-03-31T05:41:54.008Z,7.6
2023-03-31T05:43:00.728Z,7.7
2023-03-31T05:44:07.587Z,7.8
2023-03-31T05:45:14.302Z,7.7
2023-03-31T05:46:21.170Z,7.8
2023-03-31T05:47:28.014Z,7.8
2023-03-31T05:48:34.794Z,7.8
2023-03-31T05:49:41.511Z,7.9
2023-03-31T05:50:48.270Z,8
2023-03-31T05:51:55.061Z,8.1
2023-03-31T05:53:01.798Z,8.1
2023-03-31T05:54:08.679Z,8.1
2023-03-31T05:55:15.448Z,8.2
2023-03-31T05:56:22.278Z,8.3
2023-03-31T05:57:29.058Z,8.4
2023-03-31T05:58:35.925Z,8.4
2023-03-31T05:59:42.838Z,8.4
2023-03-31T06:00:49.661Z,8.5
2023-03-31T06:02:04.390Z,8.5
2023-03-31T06:03:11.271Z,8.5
2023-03-31T06:04:18.135Z,8.6
2023-03-31T06:05:24.855Z,8.6
2023-03-31T06:06:31.641Z,8.6
2023-03-31T06:07:38.496Z,8.5
2023-03-31T06:08:45.288Z,8.7
2023-03-31T06:09:52.096Z,8.6
2023-03-31T06:10:59.908Z,8.6
2023-03-31T06:12:07.534Z,8.6
2023-03-31T06:13:14.540Z,8.6
2023-03-31T06:14:21.115Z,8.6
2023-03-31T06:15:27.970Z,8.6
2023-03-31T06:16:34.792Z,8.7
2023-03-31T06:17:41.523Z,8.8
2023-03-31T06:18:48.440Z,9
2023-03-31T06:19:55.335Z,8.9
2023-03-31T06:21:02.096Z,9
2023-03-31T06:22:08.902Z,9
2023-03-31T06:23:15.662Z,9
2023-03-31T06:24:22.488Z,9.1
2023-03-31T06:25:34.583Z,9.1
2023-03-31T06:26:36.027Z,9.1
2023-03-31T06:27:42.843Z,9.2
2023-03-31T06:28:49.622Z,9.3
2023-03-31T06:29:56.374Z,9.4
2023-03-31T06:31:03.532Z,9.5
2023-03-31T06:32:10.188Z,9.4
2023-03-31T06:33:16.865Z,9.5
2023-03-31T06:34:23.670Z,9.7
2023-03-31T06:35:30.577Z,9.6
2023-03-31T06:36:37.363Z,9.7
2023-03-31T06:37:44.126Z,9.8
2023-03-31T06:38:51.240Z,9.9
2023-03-31T06:39:57.758Z,10
2023-03-31T06:41:04.785Z,10.2
2023-03-31T06:42:11.319Z,10.2
2023-03-31T06:43:18.167Z,10.1
2023-03-31T06:44:24.924Z,10.2
2023-03-31T06:45:31.733Z,10.2
2023-03-31T06:46:38.626Z,10.4
2023-03-31T06:47:45.427Z,10.1
2023-03-31T06:48:52.277Z,10.3
2023-03-31T06:49:59.109Z,10.4
2023-03-31T06:51:05.872Z,10.3
2023-03-31T06:52:12.693Z,10.2
2023-03-31T06:53:19.496Z,10.3
2023-03-31T06:54:26.337Z,10.4
2023-03-31T06:55:33.157Z,10.4
2023-03-31T06:56:39.861Z,10.5
2023-03-31T06:57:46.562Z,10.4
2023-03-31T06:58:53.376Z,10.5
2023-03-31T07:00:00.255Z,10.6
2023-03-31T07:01:07.385Z,10.5
2023-03-31T07:02:14.020Z,10.5
2023-03-31T07:03:20.754Z,10.4
2023-03-31T07:04:27.664Z,10.7
2023-03-31T07:05:34.538Z,10.7
2023-03-31T07:06:41.435Z,10.7
2023-03-31T07:07:48.061Z,11
2023-03-31T07:08:54.834Z,11.2
2023-03-31T07:10:01.674Z,11
2023-03-31T07:11:09.104Z,10.8
2023-03-31T07:12:15.625Z,10.9
2023-03-31T07:13:22.370Z,10.9
2023-03-31T07:14:29.091Z,10.9
2023-03-31T07:15:35.873Z,11
2023-03-31T07:16:42.782Z,10.8
2023-03-31T07:17:49.498Z,11.1
2023-03-31T07:18:56.201Z,11.2
2023-03-31T07:20:02.921Z,11.4
2023-03-31T07:21:10.545Z,11.6
2023-03-31T07:22:16.927Z,11.3
2023-03-31T07:23:23.662Z,11.3
2023-03-31T07:24:30.411Z,11.2
2023-03-31T07:25:37.183Z,11.3
2023-03-31T07:26:43.920Z,11.3
2023-03-31T07:27:50.726Z,11.5
2023-03-31T07:28:57.703Z,11.5
2023-03-31T07:30:04.360Z,11.5
2023-03-31T07:31:11.377Z,11.6
2023-03-31T07:32:18.228Z,11.6
2023-03-31T07:33:24.928Z,11.4
2023-03-31T07:34:31.754Z,11.5
2023-03-31T07:35:38.609Z,11.5
2023-03-31T07:36:45.384Z,11.7
2023-03-31T07:37:52.086Z,11.6
2023-03-31T07:38:58.954Z,11.7
2023-03-31T07:40:05.770Z,11.9
2023-03-31T07:41:12.660Z,12.1
2023-03-31T07:42:19.323Z,12.3
2023-03-31T07:43:26.101Z,12.3
2023-03-31T07:44:33.001Z,11.8
2023-03-31T07:45:39.924Z,11.8
2023-03-31T07:46:46.684Z,11.7
2023-03-31T07:47:53.507Z,11.6
2023-03-31T07:49:00.357Z,11.8
2023-03-31T07:50:07.143Z,11.8
2023-03-31T07:51:14.069Z,11.8
2023-03-31T07:52:20.817Z,11.9
2023-03-31T07:53:27.575Z,11.9
2023-03-31T07:54:34.353Z,12
2023-03-31T07:55:41.139Z,12
2023-03-31T07:56:48.070Z,12.1
2023-03-31T07:57:54.805Z,12.1
2023-03-31T07:59:01.581Z,12.1
2023-03-31T08:00:08.369Z,12.2
2023-03-31T08:01:15.461Z,12.1
2023-03-31T08:02:22.439Z,12
2023-03-31T08:03:29.155Z,12.1
2023-03-31T08:04:36.072Z,12.1
2023-03-31T08:05:42.714Z,11.9
2023-03-31T08:06:49.458Z,12
2023-03-31T08:07:56.149Z,11.8
2023-03-31T08:09:02.945Z,12
2023-03-31T08:10:09.711Z,11.9
2023-03-31T08:11:16.461Z,11.9
2023-03-31T08:12:23.229Z,12
2023-03-31T08:13:30.138Z,12
2023-03-31T08:14:40.885Z,11.8
2023-03-31T08:15:43.737Z,11.9
2023-03-31T08:16:50.491Z,12.2
2023-03-31T08:17:57.229Z,12.3
2023-03-31T08:19:04.048Z,12.4
2023-03-31T08:20:10.862Z,12.6
2023-03-31T08:21:17.594Z,12.6
2023-03-31T08:22:24.382Z,12.1
2023-03-31T08:23:31.123Z,12.3
2023-03-31T08:24:37.928Z,12.4
2023-03-31T08:25:44.796Z,12.6
2023-03-31T08:26:51.637Z,12.6
2023-03-31T08:27:58.406Z,12.8
2023-03-31T08:29:05.135Z,12.9
2023-03-31T08:30:11.917Z,12.9
2023-03-31T08:31:19.067Z,13.1
2023-03-31T08:32:25.736Z,13.3
2023-03-31T08:33:32.459Z,13.3
2023-03-31T08:34:39.208Z,13.2
2023-03-31T08:35:45.997Z,13.2
2023-03-31T08:36:52.684Z,13.1
2023-03-31T08:37:59.491Z,13
2023-03-31T08:39:06.307Z,13.1
2023-03-31T08:40:13.058Z,13.2
2023-03-31T08:41:19.819Z,13.1
2023-03-31T08:42:36.736Z,13.1
2023-03-31T08:43:49.332Z,13.1
2023-03-31T08:44:56.031Z,13.1
2023-03-31T08:46:13.073Z,13.4
2023-03-31T08:47:19.849Z,13.5
2023-03-31T08:48:26.712Z,13.4
2023-03-31T08:49:33.513Z,13.2
2023-03-31T08:50:42.865Z,13
2023-03-31T08:51:49.603Z,13.2
2023-03-31T08:52:56.344Z,13.2
2023-03-31T08:54:12.512Z,13.3
2023-03-31T08:55:20.575Z,13.3
2023-03-31T08:56:27.285Z,13.4
2023-03-31T08:57:37.049Z,13.2
2023-03-31T08:58:49.242Z,13.4
2023-03-31T08:59:56.007Z,13.6
2023-03-31T09:01:02.787Z,13.6
2023-03-31T09:02:12.353Z,13.7
2023-03-31T09:03:29.313Z,13.6
2023-03-31T09:04:41.112Z,13.7
2023-03-31T09:05:59.166Z,13.7
2023-03-31T09:07:02.315Z,13.7
2023-03-31T09:08:14.176Z,13.9
2023-03-31T09:09:31.084Z,14
2023-03-31T09:10:43.065Z,14.2
2023-03-31T09:11:59.912Z,14
2023-03-31T09:13:06.650Z,14.1
2023-03-31T09:14:13.448Z,14.3
2023-03-31T09:15:28.209Z,14.6
2023-03-31T09:16:40.024Z,14.6
2023-03-31T09:17:51.878Z,14.5
2023-03-31T09:18:58.580Z,14.2
2023-03-31T09:20:05.439Z,14.3
2023-03-31T09:21:17.272Z,14.4
2023-03-31T09:22:29.247Z,14.4
2023-03-31T09:23:35.996Z,14.4
2023-03-31T09:24:42.713Z,14.3
2023-03-31T09:25:52.250Z,14.3
2023-03-31T09:26:59.089Z,14.4
2023-03-31T09:28:08.873Z,14.4
2023-03-31T09:29:23.854Z,14.3
2023-03-31T09:30:40.849Z,14.3
2023-03-31T09:31:47.653Z,14.3
2023-03-31T09:32:54.387Z,14.3
2023-03-31T09:34:11.198Z,14.2
2023-03-31T09:35:18.028Z,14.4
2023-03-31T09:36:24.773Z,14.3
2023-03-31T09:37:31.513Z,14.2
2023-03-31T09:38:38.278Z,14.1
2023-03-31T09:39:45.026Z,14.2
2023-03-31T09:40:52.010Z,14.2
2023-03-31T09:41:58.751Z,14.1
2023-03-31T09:43:05.527Z,14.2
2023-03-31T09:44:12.274Z,14.2
2023-03-31T09:45:29.183Z,14
2023-03-31T09:46:36.040Z,13.8
2023-03-31T09:47:42.759Z,14
2023-03-31T09:48:49.419Z,13.9
2023-03-31T09:50:01.283Z,13.8
2023-03-31T09:51:08.299Z,13.9
2023-03-31T09:52:17.844Z,13.7
2023-03-31T09:53:30.339Z,13.6
2023-03-31T09:54:39.898Z,13.8
2023-03-31T09:55:49.455Z,13.8
2023-03-31T09:56:56.209Z,13.9
2023-03-31T09:58:03.017Z,13.8
2023-03-31T09:59:09.822Z,13.8
2023-03-31T10:00:16.962Z,13.9
2023-03-31T10:01:23.677Z,14.1
2023-03-31T10:02:30.507Z,14
2023-03-31T10:03:39.812Z,14.5
2023-03-31T10:04:54.596Z,14.3
2023-03-31T10:06:01.374Z,14.5
2023-03-31T10:07:13.970Z,14.6
2023-03-31T10:08:20.817Z,14.6
2023-03-31T10:09:30.103Z,14.6
2023-03-31T10:10:36.923Z,14.4
2023-03-31T10:11:43.723Z,14.4
2023-03-31T10:12:55.652Z,14.5
2023-03-31T10:14:02.542Z,14.3
2023-03-31T10:15:14.515Z,14.4
2023-03-31T10:16:24.456Z,14.3
2023-03-31T10:17:33.988Z,14.1
2023-03-31T10:18:38.042Z,14.2
2023-03-31T10:19:44.666Z,14.1
2023-03-31T10:20:54.511Z,14.2
2023-03-31T10:22:01.291Z,14.1
2023-03-31T10:23:13.064Z,14.3
2023-03-31T10:24:19.929Z,14.1
2023-03-31T10:25:26.759Z,14.1
2023-03-31T10:26:33.572Z,14.1
2023-03-31T10:27:40.374Z,13.9
2023-03-31T10:28:47.174Z,13.9
2023-03-31T10:29:53.933Z,14.2
2023-03-31T10:31:00.833Z,14.1
2023-03-31T10:32:07.640Z,14
2023-03-31T10:33:22.928Z,13.9
2023-03-31T10:34:26.360Z,13.9
2023-03-31T10:35:33.089Z,14
2023-03-31T10:36:39.847Z,14
2023-03-31T10:37:49.431Z,14.2
2023-03-31T10:38:59.107Z,14.1
2023-03-31T10:40:08.762Z,14
2023-03-31T10:41:20.692Z,14
2023-03-31T10:42:30.246Z,14
2023-03-31T10:43:36.978Z,14
2023-03-31T10:44:43.795Z,13.9
2023-03-31T10:45:50.610Z,13.9
2023-03-31T10:46:57.524Z,13.9
2023-03-31T10:48:07.194Z,14.1
2023-03-31T10:49:21.490Z,14.1
2023-03-31T10:50:28.282Z,14.3
2023-03-31T10:51:35.119Z,14.4
2023-03-31T10:52:41.866Z,14.4
2023-03-31T10:53:48.686Z,14.4
2023-03-31T10:54:55.398Z,14.5
2023-03-31T10:56:02.273Z,14.4
2023-03-31T10:57:12.227Z,14.4
2023-03-31T10:58:19.110Z,14.7
2023-03-31T10:59:31.035Z,14.8
2023-03-31T11:00:45.644Z,15
2023-03-31T11:02:00.703Z,15
2023-03-31T11:03:17.050Z,14.8
2023-03-31T11:04:28.775Z,14.8
2023-03-31T11:05:40.667Z,15.1
2023-03-31T11:06:55.396Z,15.1
2023-03-31T11:08:12.360Z,15.4
2023-03-31T11:09:29.296Z,15.8
2023-03-31T11:10:41.224Z,15.8
2023-03-31T11:11:52.998Z,15.7
2023-03-31T11:13:04.814Z,15.6
2023-03-31T11:14:21.852Z,15.9
2023-03-31T11:15:38.836Z,16.4
2023-03-31T11:16:50.670Z,16.1
2023-03-31T11:18:07.693Z,16.4
2023-03-31T11:19:24.489Z,16.4
2023-03-31T11:20:33.915Z,16.4
2023-03-31T11:21:50.839Z,17
2023-03-31T11:23:00.539Z,17.2
2023-03-31T11:24:15.008Z,17.1
2023-03-31T11:25:31.977Z,17.2
2023-03-31T11:26:48.870Z,17.1
2023-03-31T11:28:00.756Z,16.9
2023-03-31T11:29:17.634Z,16.6
2023-03-31T11:30:32.357Z,16.6
2023-03-31T11:31:41.706Z,16.8
2023-03-31T11:32:53.603Z,16.5
2023-03-31T11:34:10.436Z,16.3
2023-03-31T11:35:17.172Z,16.4
2023-03-31T11:36:29.678Z,16.5
2023-03-31T11:37:41.568Z,16.4
2023-03-31T11:38:53.343Z,16.8
2023-03-31T11:40:03.097Z,17
2023-03-31T11:41:14.991Z,17.1
2023-03-31T11:42:24.516Z,16.8
2023-03-31T11:43:31.276Z,16.7
2023-03-31T11:44:43.176Z,16.6
2023-03-31T11:45:50.019Z,16.6
2023-03-31T11:47:01.946Z,16.7
2023-03-31T11:48:13.941Z,16.9
2023-03-31T11:49:30.860Z,16.9
2023-03-31T11:50:40.313Z,17.1
2023-03-31T11:51:47.002Z,17.2
2023-03-31T11:52:56.849Z,17.5
2023-03-31T11:54:03.566Z,17.6
2023-03-31T11:55:10.448Z,17.1
2023-03-31T11:56:20.270Z,16.6
2023-03-31T11:57:27.133Z,16.4
2023-03-31T11:58:36.417Z,16.3
2023-03-31T11:59:43.184Z,16.4
2023-03-31T12:00:50.034Z,16.3
2023-03-31T12:01:56.792Z,16.3
2023-03-31T12:03:08.642Z,16.4
2023-03-31T12:04:18.196Z,16.4
2023-03-31T12:05:32.671Z,16.4
2023-03-31T12:06:39.399Z,16.2
2023-03-31T12:07:46.115Z,16.1
2023-03-31T12:08:55.838Z,16
2023-03-31T12:10:10.455Z,15.9
2023-03-31T12:11:25.366Z,15.7
2023-03-31T12:12:40.375Z,15.8
2023-03-31T12:13:49.756Z,15.8
2023-03-31T12:14:56.544Z,15.8
2023-03-31T12:16:06.372Z,16
2023-03-31T12:17:15.840Z,15.9
2023-03-31T12:18:30.668Z,15.8
2023-03-31T12:19:37.407Z,15.6
2023-03-31T12:20:54.409Z,15.4
2023-03-31T12:22:01.213Z,15.4
2023-03-31T12:23:13.049Z,15.4
2023-03-31T12:24:22.770Z,15.4
2023-03-31T12:25:29.522Z,15.5
2023-03-31T12:26:36.367Z,15.4
2023-03-31T12:27:53.272Z,15.5
2023-03-31T12:29:00.130Z,15.2
2023-03-31T12:30:09.772Z,15
2023-03-31T12:31:19.732Z,15
2023-03-31T12:32:26.492Z,15.2
2023-03-31T12:33:33.260Z,15.2
2023-03-31T12:34:43.045Z,15.2
2023-03-31T12:35:54.933Z,15.2
2023-03-31T12:37:06.913Z,15.2
2023-03-31T12:38:18.802Z,15.3
2023-03-31T12:39:35.717Z,15.3
2023-03-31T12:40:50.157Z,15.2
2023-03-31T12:42:01.999Z,15.1
2023-03-31T12:43:16.612Z,14.9
2023-03-31T12:44:31.470Z,14.8
2023-03-31T12:45:45.945Z,14.3
2023-03-31T12:46:57.743Z,14.4
2023-03-31T12:48:12.365Z,14.2
2023-03-31T12:49:27.220Z,14.2
2023-03-31T12:50:44.142Z,14.2
2023-03-31T12:51:56.821Z,14.1
2023-03-31T12:53:08.655Z,14
2023-03-31T12:54:18.126Z,14
2023-03-31T12:55:34.996Z,14
2023-03-31T12:56:47.448Z,14.1
2023-03-31T12:58:04.343Z,14.2
2023-03-31T12:59:21.304Z,14.2
2023-03-31T13:00:33.374Z,14.2
2023-03-31T13:01:40.343Z,14.1
2023-03-31T13:02:57.196Z,14.1
2023-03-31T13:04:15.404Z,14
2023-03-31T13:05:20.911Z,14
2023-03-31T13:06:37.842Z,14
2023-03-31T13:07:44.673Z,13.9
2023-03-31T13:08:51.585Z,14
2023-03-31T13:10:06.282Z,13.9
2023-03-31T13:11:20.837Z,13.7
2023-03-31T13:12:37.799Z,13.8
2023-03-31T13:13:54.442Z,13.8
2023-03-31T13:14:59.342Z,13.7
2023-03-31T13:16:06.128Z,13.8
2023-03-31T13:17:12.935Z,13.8
2023-03-31T13:18:27.319Z,13.7
2023-03-31T13:19:34.149Z,13.7
2023-03-31T13:20:40.975Z,13.8
2023-03-31T13:21:47.694Z,13.9
2023-03-31T13:22:57.529Z,13.9
2023-03-31T13:24:09.366Z,13.8
2023-03-31T13:25:16.090Z,13.7
2023-03-31T13:26:32.972Z,13.6
2023-03-31T13:27:39.851Z,13.6
2023-03-31T13:28:51.692Z,13.7
2023-03-31T13:30:03.489Z,13.4
2023-03-31T13:31:10.426Z,13.4
2023-03-31T13:32:17.237Z,13.5
2023-03-31T13:33:26.767Z,13.4
2023-03-31T13:34:38.683Z,13.4
2023-03-31T13:35:45.763Z,13.4
2023-03-31T13:36:57.553Z,13.3
2023-03-31T13:38:12.236Z,13.1
2023-03-31T13:39:26.951Z,13.4
2023-03-31T13:40:33.723Z,13.4
2023-03-31T13:41:50.678Z,13.4
2023-03-31T13:43:05.247Z,13.3
2023-03-31T13:44:19.808Z,13.3
2023-03-31T13:45:34.447Z,13.2
2023-03-31T13:46:46.274Z,13.3
2023-03-31T13:48:03.295Z,13.2
2023-03-31T13:49:20.127Z,13.3
2023-03-31T13:50:29.644Z,13.3
2023-03-31T13:51:46.700Z,13
2023-03-31T13:52:58.569Z,12.8
2023-03-31T13:54:10.430Z,13
2023-03-31T13:55:22.703Z,13.1
2023-03-31T13:56:37.405Z,12.9
2023-03-31T13:57:54.284Z,12.8
2023-03-31T13:59:06.186Z,12.7
2023-03-31T14:00:18.019Z,12.5
2023-03-31T14:01:32.684Z,12.6
2023-03-31T14:02:47.231Z,12.6
2023-03-31T14:03:56.750Z,12.7
2023-03-31T14:05:11.412Z,12.6
2023-03-31T14:06:23.360Z,12.6
2023-03-31T14:07:40.252Z,12.7
2023-03-31T14:08:47.013Z,12.6
2023-03-31T14:09:56.446Z,12.7
2023-03-31T14:11:03.270Z,12.7
2023-03-31T14:12:20.137Z,12.8
2023-03-31T14:13:34.842Z,12.8
2023-03-31T14:14:41.581Z,12.8
2023-03-31T14:15:48.360Z,12.8
2023-03-31T14:17:00.206Z,12.8
2023-03-31T14:18:07.035Z,12.8
2023-03-31T14:19:13.705Z,12.9
2023-03-31T14:20:25.569Z,12.9
2023-03-31T14:21:32.320Z,12.7
2023-03-31T14:22:44.131Z,12.6
2023-03-31T14:23:58.990Z,12.7
2023-03-31T14:25:10.816Z,12.6
2023-03-31T14:26:20.323Z,12.6
2023-03-31T14:27:37.902Z,12.7
2023-03-31T14:28:50.190Z,12.8
2023-03-31T14:30:02.085Z,12.8
2023-03-31T14:31:09.035Z,12.8
2023-03-31T14:32:20.753Z,12.9
2023-03-31T14:33:32.590Z,12.9
2023-03-31T14:34:49.451Z,12.9
2023-03-31T14:36:01.376Z,12.9
2023-03-31T14:37:13.203Z,13
2023-03-31T14:38:20.022Z,13
2023-03-31T14:39:26.822Z,12.9
2023-03-31T14:40:33.593Z,12.9
2023-03-31T14:41:40.308Z,13
2023-03-31T14:42:47.108Z,13.1
2023-03-31T14:43:54.027Z,13
2023-03-31T14:45:00.832Z,12.9
2023-03-31T14:46:07.894Z,12.8
2023-03-31T14:47:14.577Z,12.9
2023-03-31T14:48:24.389Z,12.9
2023-03-31T14:49:31.224Z,12.8
2023-03-31T14:50:38.112Z,12.9
2023-03-31T14:51:44.864Z,12.8
2023-03-31T14:52:54.269Z,12.9
2023-03-31T14:54:01.051Z,12.8
2023-03-31T14:55:07.922Z,12.8
2023-03-31T14:56:17.647Z,12.8
2023-03-31T14:57:24.510Z,12.8
2023-03-31T14:58:33.936Z,12.9
2023-03-31T14:59:40.905Z,12.8
2023-03-31T15:00:47.737Z,12.8
2023-03-31T15:01:54.517Z,12.8
2023-03-31T15:03:01.406Z,12.9
2023-03-31T15:04:08.178Z,12.9
2023-03-31T15:05:15.007Z,13
2023-03-31T15:06:29.387Z,13
2023-03-31T15:07:36.186Z,13
2023-03-31T15:08:43.065Z,13.1
2023-03-31T15:09:49.872Z,13.1
2023-03-31T15:11:02.209Z,13.3
2023-03-31T15:12:03.360Z,13.3
2023-03-31T15:13:10.194Z,13.4
2023-03-31T15:14:22.078Z,13.4
2023-03-31T15:15:34.756Z,13.3
2023-03-31T15:16:41.538Z,13.5
2023-03-31T15:17:48.203Z,13.5
2023-03-31T15:18:55.102Z,13.4
2023-03-31T15:20:01.947Z,13.6
2023-03-31T15:21:18.923Z,13.7
2023-03-31T15:22:25.635Z,13.6
2023-03-31T15:23:32.603Z,13.6
2023-03-31T15:24:39.353Z,13.6
2023-03-31T15:25:46.121Z,13.6
2023-03-31T15:26:52.961Z,13.6
2023-03-31T15:28:02.424Z,13.6
2023-03-31T15:29:09.209Z,13.7
2023-03-31T15:30:16.062Z,13.8
2023-03-31T15:31:23.050Z,13.9
2023-03-31T15:32:29.697Z,13.8
2023-03-31T15:33:39.253Z,13.8
2023-03-31T15:34:45.995Z,13.9
2023-03-31T15:35:52.802Z,13.9
2023-03-31T15:36:59.658Z,13.9
2023-03-31T15:38:06.683Z,13.9